sensor_id;sensor_type;location;lat;lon;timestamp;pressure;altitude;pressure_sealevel;temperature;humidity
62152;BME280;48139;47.474;19.034;2022-10-28T03:47:18;101845.09;;;13.09;100.00
62152;BME280;48139;47.474;19.034;2022-10-28T03:50:21;101845.09;;;13.09;100.00
62152;BME280;48139;47.474;19.034;2022-10-28T03:53:23;101840.34;;;12.67;100.00
62152;BME280;48139;47.474;19.034;2022-10-28T03:56:30;101836.72;;;12.70;100.00
62152;BME280;48139;47.474;19.034;2022-10-28T03:59:32;101838.50;;;12.69;100.00
62152;BME280;48139;47.474;19.034;2022-10-28T04:02:35;101841.75;;;12.77;100.00
62152;BME280;48139;47.474;19.034;2022-10-28T04:05:37;101839.03;;;12.80;100.00
62152;BME280;48139;47.474;19.034;2022-10-28T04:08:40;101834.41;;;12.87;100.00
62152;BME280;48139;47.474;19.034;2022-10-28T04:11:42;101839.41;;;12.94;99.80
62152;BME280;48139;47.474;19.034;2022-10-28T04:14:45;101831.53;;;12.94;98.96
62152;BME280;48139;47.474;19.034;2022-10-28T04:17:47;101829.75;;;12.95;99.32
62152;BME280;48139;47.474;19.034;2022-10-28T04:20:50;101825.84;;;13.07;98.80
62152;BME280;48139;47.474;19.034;2022-10-28T04:23:52;101824.84;;;13.11;98.09
62152;BME280;48139;47.474;19.034;2022-10-28T04:26:55;101818.12;;;13.02;98.28
62152;BME280;48139;47.474;19.034;2022-10-28T04:29:57;101811.47;;;12.92;98.75
62152;BME280;48139;47.474;19.034;2022-10-28T04:33:00;101821.16;;;12.90;99.55
62152;BME280;48139;47.474;19.034;2022-10-28T04:36:02;101816.66;;;12.93;100.00
62152;BME280;48139;47.474;19.034;2022-10-28T04:39:05;101810.34;;;12.99;99.37
62152;BME280;48139;47.474;19.034;2022-10-28T04:42:08;101810.44;;;12.96;99.57
62152;BME280;48139;47.474;19.034;2022-10-28T04:45:10;101813.72;;;13.03;99.07
62152;BME280;48139;47.474;19.034;2022-10-28T04:48:13;101806.56;;;13.06;98.53
62152;BME280;48139;47.474;19.034;2022-10-28T04:51:15;101808.22;;;13.10;98.50
62152;BME280;48139;47.474;19.034;2022-10-28T04:54:18;101800.88;;;12.93;99.11
62152;BME280;48139;47.474;19.034;2022-10-28T04:57:20;101798.44;;;12.87;100.00
62152;BME280;48139;47.474;19.034;2022-10-28T05:00:23;101809.16;;;12.81;100.00
62152;BME280;48139;47.474;19.034;2022-10-28T05:03:26;101811.91;;;12.78;100.00
62152;BME280;48139;47.474;19.034;2022-10-28T05:06:29;101804.72;;;12.83;100.00
62152;BME280;48139;47.474;19.034;2022-10-28T05:09:31;101811.59;;;12.87;100.00
62152;BME280;48139;47.474;19.034;2022-10-28T05:12:34;101810.19;;;12.77;100.00
62152;BME280;48139;47.474;19.034;2022-10-28T05:15:36;101812.28;;;12.68;100.00
62152;BME280;48139;47.474;19.034;2022-10-28T05:18:39;101799.31;;;12.62;100.00
62152;BME280;48139;47.474;19.034;2022-10-28T05:21:41;101809.97;;;12.57;100.00
62152;BME280;48139;47.474;19.034;2022-10-28T05:24:44;101811.62;;;12.61;100.00
62152;BME280;48139;47.474;19.034;2022-10-28T05:27:46;101815.03;;;12.63;100.00
62152;BME280;48139;47.474;19.034;2022-10-28T05:30:49;101816.78;;;12.63;100.00
62152;BME280;48139;47.474;19.034;2022-10-28T05:33:51;101813.41;;;12.59;100.00
62152;BME280;48139;47.474;19.034;2022-10-28T05:36:54;101818.72;;;12.58;100.00
62152;BME280;48139;47.474;19.034;2022-10-28T05:39:56;101822.41;;;12.52;100.00
62152;BME280;48139;47.474;19.034;2022-10-28T05:43:00;101825.00;;;12.53;100.00
62152;BME280;48139;47.474;19.034;2022-10-28T05:46:03;101821.38;;;12.56;100.00
62152;BME280;48139;47.474;19.034;2022-10-28T05:49:06;101831.16;;;12.52;100.00
62152;BME280;48139;47.474;19.034;2022-10-28T05:52:09;101842.63;;;12.50;100.00
62152;BME280;48139;47.474;19.034;2022-10-28T05:55:12;101840.84;;;12.50;100.00
62152;BME280;48139;47.474;19.034;2022-10-28T05:58:14;101845.44;;;12.44;100.00
62152;BME280;48139;47.474;19.034;2022-10-28T06:01:17;101851.44;;;12.49;100.00
62152;BME280;48139;47.474;19.034;2022-10-28T06:04:20;101850.75;;;12.42;100.00
62152;BME280;48139;47.474;19.034;2022-10-28T06:07:22;101850.81;;;12.41;100.00
62152;BME280;48139;47.474;19.034;2022-10-28T06:10:25;101852.75;;;12.34;100.00
62152;BME280;48139;47.474;19.034;2022-10-28T06:13:28;101858.22;;;12.27;100.00
62152;BME280;48139;47.474;19.034;2022-10-28T06:16:31;101868.69;;;12.28;100.00
62152;BME280;48139;47.474;19.034;2022-10-28T06:19:33;101862.62;;;12.26;100.00
62152;BME280;48139;47.474;19.034;2022-10-28T06:22:36;101864.34;;;12.27;100.00
62152;BME280;48139;47.474;19.034;2022-10-28T06:25:38;101857.09;;;12.35;100.00
62152;BME280;48139;47.474;19.034;2022-10-28T06:28:41;101859.50;;;12.43;100.00
62152;BME280;48139;47.474;19.034;2022-10-28T06:31:44;101855.28;;;12.37;100.00
62152;BME280;48139;47.474;19.034;2022-10-28T06:34:46;101860.50;;;12.39;100.00
62152;BME280;48139;47.474;19.034;2022-10-28T06:37:53;101864.66;;;12.46;100.00
62152;BME280;48139;47.474;19.034;2022-10-28T06:40:57;101870.78;;;12.46;100.00
62152;BME280;48139;47.474;19.034;2022-10-28T06:44:00;101871.53;;;12.50;100.00
62152;BME280;48139;47.474;19.034;2022-10-28T06:47:03;101869.94;;;12.44;100.00
62152;BME280;48139;47.474;19.034;2022-10-28T06:50:05;101863.13;;;12.39;100.00
62152;BME280;48139;47.474;19.034;2022-10-28T06:53:08;101869.09;;;12.44;100.00
62152;BME280;48139;47.474;19.034;2022-10-28T06:56:11;101868.91;;;12.50;100.00
62152;BME280;48139;47.474;19.034;2022-10-28T06:59:14;101871.53;;;12.50;100.00
62152;BME280;48139;47.474;19.034;2022-10-28T07:02:16;101881.44;;;12.42;100.00
62152;BME280;48139;47.474;19.034;2022-10-28T07:05:19;101880.66;;;12.38;100.00
62152;BME280;48139;47.474;19.034;2022-10-28T07:08:22;101882.47;;;12.36;100.00
62152;BME280;48139;47.474;19.034;2022-10-28T07:11:25;101885.72;;;12.44;100.00
62152;BME280;48139;47.474;19.034;2022-10-28T07:14:27;101887.56;;;12.42;100.00
62152;BME280;48139;47.474;19.034;2022-10-28T07:17:30;101895.47;;;12.41;100.00
62152;BME280;48139;47.474;19.034;2022-10-28T07:20:33;101884.09;;;12.40;100.00
62152;BME280;48139;47.474;19.034;2022-10-28T07:23:35;101882.09;;;12.48;100.00
62152;BME280;48139;47.474;19.034;2022-10-28T07:26:38;101885.41;;;12.55;100.00
62152;BME280;48139;47.474;19.034;2022-10-28T07:29:40;101876.53;;;12.58;100.00
62152;BME280;48139;47.474;19.034;2022-10-28T07:32:43;101881.09;;;12.52;100.00
62152;BME280;48139;47.474;19.034;2022-10-28T07:35:45;101876.50;;;12.59;100.00
62152;BME280;48139;47.474;19.034;2022-10-28T07:38:49;101872.34;;;12.52;100.00
62152;BME280;48139;47.474;19.034;2022-10-28T07:41:52;101881.84;;;12.56;100.00
62152;BME280;48139;47.474;19.034;2022-10-28T07:44:55;101888.84;;;12.57;100.00
62152;BME280;48139;47.474;19.034;2022-10-28T07:47:57;101888.75;;;12.60;100.00
62152;BME280;48139;47.474;19.034;2022-10-28T07:51:02;101894.72;;;12.65;100.00
62152;BME280;48139;47.474;19.034;2022-10-28T07:54:06;101900.81;;;12.67;100.00
62152;BME280;48139;47.474;19.034;2022-10-28T07:57:08;101898.09;;;12.69;100.00
62152;BME280;48139;47.474;19.034;2022-10-28T08:00:11;101895.38;;;12.72;100.00
62152;BME280;48139;47.474;19.034;2022-10-28T08:03:14;101896.44;;;12.66;100.00
62152;BME280;48139;47.474;19.034;2022-10-28T08:06:18;101897.16;;;12.71;100.00
62152;BME280;48139;47.474;19.034;2022-10-28T08:09:21;101897.19;;;12.70;100.00
62152;BME280;48139;47.474;19.034;2022-10-28T08:12:24;101887.47;;;12.73;100.00
62152;BME280;48139;47.474;19.034;2022-10-28T08:15:27;101874.03;;;12.81;100.00
62152;BME280;48139;47.474;19.034;2022-10-28T08:18:31;101869.31;;;12.92;100.00
62152;BME280;48139;47.474;19.034;2022-10-28T08:21:33;101867.41;;;12.97;100.00
62152;BME280;48139;47.474;19.034;2022-10-28T08:24:36;101863.91;;;12.97;99.13
62152;BME280;48139;47.474;19.034;2022-10-28T08:27:39;101863.78;;;13.00;98.99
62152;BME280;48139;47.474;19.034;2022-10-28T08:30:44;101863.75;;;13.01;98.83
62152;BME280;48139;47.474;19.034;2022-10-28T08:34:07;101863.66;;;13.04;98.50
62152;BME280;48139;47.474;19.034;2022-10-28T08:37:10;101855.09;;;12.98;98.99
62152;BME280;48139;47.474;19.034;2022-10-28T08:40:13;101858.53;;;13.00;99.50
62152;BME280;48139;47.474;19.034;2022-10-28T08:47:57;101882.16;;;13.01;99.94
62152;BME280;48139;47.474;19.034;2022-10-28T08:51:13;101882.13;;;13.03;99.01
62152;BME280;48139;47.474;19.034;2022-10-28T08:54:25;101884.69;;;13.04;98.16
62152;BME280;48139;47.474;19.034;2022-10-28T08:57:55;101888.47;;;12.96;97.82
62152;BME280;48139;47.474;19.034;2022-10-28T09:00:59;101889.06;;;13.05;98.12
62152;BME280;48139;47.474;19.034;2022-10-28T09:04:05;101887.06;;;13.12;98.08
62152;BME280;48139;47.474;19.034;2022-10-28T09:07:23;101888.59;;;12.92;98.00
62152;BME280;48139;47.474;19.034;2022-10-28T09:21:01;101900.78;;;12.95;99.18
62152;BME280;48139;47.474;19.034;2022-10-28T09:24:19;101895.44;;;12.98;98.59
62152;BME280;48139;47.474;19.034;2022-10-28T09:40:35;101893.31;;;13.09;96.85
62152;BME280;48139;47.474;19.034;2022-10-28T09:43:45;101894.84;;;12.88;97.45
62152;BME280;48139;47.474;19.034;2022-10-28T09:46:52;101892.25;;;12.87;97.74
62152;BME280;48139;47.474;19.034;2022-10-28T09:49:58;101890.81;;;12.78;98.11
62152;BME280;48139;47.474;19.034;2022-10-28T09:53:14;101887.59;;;12.69;99.21
62152;BME280;48139;47.474;19.034;2022-10-28T09:56:19;101889.16;;;12.74;99.36
62152;BME280;48139;47.474;19.034;2022-10-28T09:59:22;101898.69;;;12.78;99.18
62152;BME280;48139;47.474;19.034;2022-10-28T10:05:31;101902.78;;;12.87;98.10
62152;BME280;48139;47.474;19.034;2022-10-28T10:08:35;101885.38;;;12.83;97.90
62152;BME280;48139;47.474;19.034;2022-10-28T10:11:49;101885.22;;;12.87;97.78
62152;BME280;48139;47.474;19.034;2022-10-28T10:14:55;101890.00;;;13.03;97.31
62152;BME280;48139;47.474;19.034;2022-10-28T10:18:01;101881.88;;;13.10;96.57
62152;BME280;48139;47.474;19.034;2022-10-28T10:21:05;101885.97;;;13.19;95.73
62152;BME280;48139;47.474;19.034;2022-10-28T10:24:27;101888.53;;;13.22;95.15
62152;BME280;48139;47.474;19.034;2022-10-28T10:27:31;101881.53;;;13.21;94.67
62152;BME280;48139;47.474;19.034;2022-10-28T10:30:37;101893.84;;;13.20;94.25
62152;BME280;48139;47.474;19.034;2022-10-28T10:33:40;101893.53;;;13.29;94.46
62152;BME280;48139;47.474;19.034;2022-10-28T10:36:51;101888.94;;;13.36;94.20
62152;BME280;48139;47.474;19.034;2022-10-28T10:43:35;101881.78;;;13.40;93.21
62152;BME280;48139;47.474;19.034;2022-10-28T10:46:37;101875.66;;;13.39;93.09
62152;BME280;48139;47.474;19.034;2022-10-28T10:49:40;101880.87;;;13.41;93.25
62152;BME280;48139;47.474;19.034;2022-10-28T10:52:47;101873.78;;;13.43;93.56
62152;BME280;48139;47.474;19.034;2022-10-28T10:55:54;101873.72;;;13.44;92.82
62152;BME280;48139;47.474;19.034;2022-10-28T10:59:02;101871.38;;;13.37;93.08
62152;BME280;48139;47.474;19.034;2022-10-28T11:02:27;101873.34;;;13.30;93.50
62152;BME280;48139;47.474;19.034;2022-10-28T11:05:32;101870.72;;;13.30;93.70
62152;BME280;48139;47.474;19.034;2022-10-28T11:08:41;101860.28;;;13.27;93.68
62152;BME280;48139;47.474;19.034;2022-10-28T11:11:45;101863.31;;;13.41;93.73
62152;BME280;48139;47.474;19.034;2022-10-28T11:18:03;101863.03;;;13.49;92.66
62152;BME280;48139;47.474;19.034;2022-10-28T11:41:45;101850.00;;;13.44;93.68
62152;BME280;48139;47.474;19.034;2022-10-28T11:44:59;101854.16;;;13.51;93.10
62152;BME280;48139;47.474;19.034;2022-10-28T11:51:21;101852.22;;;13.56;92.71
62152;BME280;48139;47.474;19.034;2022-10-28T12:04:16;101836.38;;;13.33;94.21
62152;BME280;48139;47.474;19.034;2022-10-28T12:07:43;101827.66;;;13.31;94.13
62152;BME280;48139;47.474;19.034;2022-10-28T12:14:30;101830.94;;;13.38;94.09
62152;BME280;48139;47.474;19.034;2022-10-28T12:17:52;101818.78;;;13.35;93.92
62152;BME280;48139;47.474;19.034;2022-10-28T12:21:29;101811.44;;;13.43;93.94
62152;BME280;48139;47.474;19.034;2022-10-28T12:24:34;101816.16;;;13.58;93.11
62152;BME280;48139;47.474;19.034;2022-10-28T12:27:40;101815.25;;;13.59;92.69
62152;BME280;48139;47.474;19.034;2022-10-28T12:30:46;101810.00;;;13.59;93.48
62152;BME280;48139;47.474;19.034;2022-10-28T12:33:56;101807.94;;;13.67;92.83
62152;BME280;48139;47.474;19.034;2022-10-28T12:37:10;101797.56;;;13.63;92.84
62152;BME280;48139;47.474;19.034;2022-10-28T12:40:27;101798.19;;;13.69;92.97
62152;BME280;48139;47.474;19.034;2022-10-28T12:43:48;101803.41;;;13.71;92.74
62152;BME280;48139;47.474;19.034;2022-10-28T12:47:11;101795.47;;;13.72;92.93
62152;BME280;48139;47.474;19.034;2022-10-28T12:50:39;101797.47;;;13.66;93.13
62152;BME280;48139;47.474;19.034;2022-10-28T12:53:46;101795.69;;;13.66;93.25
62152;BME280;48139;47.474;19.034;2022-10-28T12:57:13;101790.66;;;13.60;93.56
62152;BME280;48139;47.474;19.034;2022-10-28T13:00:51;101791.66;;;13.56;94.08
62152;BME280;48139;47.474;19.034;2022-10-28T13:03:56;101790.88;;;13.54;93.96
62152;BME280;48139;47.474;19.034;2022-10-28T13:10:30;101777.34;;;13.40;94.59
62152;BME280;48139;47.474;19.034;2022-10-28T13:20:45;101778.22;;;13.41;95.94
62152;BME280;48139;47.474;19.034;2022-10-28T13:27:18;101788.72;;;13.41;95.86
62152;BME280;48139;47.474;19.034;2022-10-28T13:30:22;101789.47;;;13.44;95.94
62152;BME280;48139;47.474;19.034;2022-10-28T13:33:26;101788.59;;;13.44;96.03
62152;BME280;48139;47.474;19.034;2022-10-28T13:36:34;101788.72;;;13.41;96.77
62152;BME280;48139;47.474;19.034;2022-10-28T13:39:42;101786.09;;;13.41;96.66
62152;BME280;48139;47.474;19.034;2022-10-28T13:42:47;101790.50;;;13.40;96.83
62152;BME280;48139;47.474;19.034;2022-10-28T13:45:54;101785.28;;;13.39;96.85
62152;BME280;48139;47.474;19.034;2022-10-28T13:49:23;101787.75;;;13.43;96.97
62152;BME280;48139;47.474;19.034;2022-10-28T13:52:26;101784.16;;;13.46;96.75
62152;BME280;48139;47.474;19.034;2022-10-28T13:58:49;101778.16;;;13.42;97.46
62152;BME280;48139;47.474;19.034;2022-10-28T14:01:54;101777.84;;;13.50;96.49
62152;BME280;48139;47.474;19.034;2022-10-28T14:05:21;101779.75;;;13.46;97.25
62152;BME280;48139;47.474;19.034;2022-10-28T14:08:27;101775.94;;;13.55;97.28
62152;BME280;48139;47.474;19.034;2022-10-28T14:11:32;101784.56;;;13.58;97.00
62152;BME280;48139;47.474;19.034;2022-10-28T14:14:35;101786.63;;;13.50;97.41
62152;BME280;48139;47.474;19.034;2022-10-28T14:17:40;101790.50;;;13.40;98.69
62152;BME280;48139;47.474;19.034;2022-10-28T14:20:55;101796.06;;;13.56;97.93
62152;BME280;48139;47.474;19.034;2022-10-28T14:24:07;101793.56;;;13.53;99.01
62152;BME280;48139;47.474;19.034;2022-10-28T14:27:30;101793.72;;;13.48;98.61
62152;BME280;48139;47.474;19.034;2022-10-28T14:40:50;101781.22;;;13.30;100.00
62152;BME280;48139;47.474;19.034;2022-10-28T14:47:35;101782.06;;;13.30;99.94
62152;BME280;48139;47.474;19.034;2022-10-28T14:50:44;101789.97;;;13.30;100.00
62152;BME280;48139;47.474;19.034;2022-10-28T14:53:50;101787.91;;;13.39;99.78
62152;BME280;48139;47.474;19.034;2022-10-28T14:56:56;101779.37;;;13.32;99.86
62152;BME280;48139;47.474;19.034;2022-10-28T15:00:06;101775.19;;;13.26;100.00
62152;BME280;48139;47.474;19.034;2022-10-28T15:03:09;101772.69;;;13.23;100.00
62152;BME280;48139;47.474;19.034;2022-10-28T15:06:33;101774.97;;;13.32;100.00
62152;BME280;48139;47.474;19.034;2022-10-28T15:09:39;101770.25;;;13.42;99.58
62152;BME280;48139;47.474;19.034;2022-10-28T15:12:46;101772.31;;;13.34;99.47
62152;BME280;48139;47.474;19.034;2022-10-28T15:15:54;101774.81;;;13.37;98.96
62152;BME280;48139;47.474;19.034;2022-10-28T15:19:05;101768.75;;;13.35;99.49
62152;BME280;48139;47.474;19.034;2022-10-28T15:22:15;101754.16;;;13.26;99.20
62152;BME280;48139;47.474;19.034;2022-10-28T15:25:20;101756.94;;;13.22;100.00
62152;BME280;48139;47.474;19.034;2022-10-28T15:28:23;101753.62;;;13.17;100.00
